sensor_id;sensor_type;location;lat;lon;timestamp;pressure;altitude;pressure_sealevel;temperature;humidity
69247;BME280;56358;56.328;43.992;2023-04-08T00:01:40;102111.81;;;2.54;40.55
69247;BME280;56358;56.328;43.992;2023-04-08T00:03:41;102106.50;;;2.55;40.40
69247;BME280;56358;56.328;43.992;2023-04-08T00:05:41;102062.88;;;2.28;40.23
69247;BME280;56358;56.328;43.992;2023-04-08T00:07:42;102104.72;;;2.56;40.33
69247;BME280;56358;56.328;43.992;2023-04-08T00:09:43;102110.91;;;2.56;40.52
69247;BME280;56358;56.328;43.992;2023-04-08T00:11:44;102091.63;;;2.46;40.45
69247;BME280;56358;56.328;43.992;2023-04-08T00:13:44;102103.91;;;2.52;40.55
69247;BME280;56358;56.328;43.992;2023-04-08T00:15:45;102123.22;;;2.59;40.53
69247;BME280;56358;56.328;43.992;2023-04-08T00:17:46;102130.38;;;2.52;40.74
69247;BME280;56358;56.328;43.992;2023-04-08T00:19:46;102118.09;;;2.48;41.25
69247;BME280;56358;56.328;43.992;2023-04-08T00:21:47;102112.16;;;2.35;41.99
69247;BME280;56358;56.328;43.992;2023-04-08T00:23:48;102089.72;;;2.05;42.70
69247;BME280;56358;56.328;43.992;2023-04-08T00:25:48;102120.50;;;2.09;43.33
69247;BME280;56358;56.328;43.992;2023-04-08T00:27:50;102092.69;;;1.83;43.45
69247;BME280;56358;56.328;43.992;2023-04-08T00:29:50;102119.06;;;1.89;43.86
69247;BME280;56358;56.328;43.992;2023-04-08T00:31:51;102110.56;;;1.67;44.83
69247;BME280;56358;56.328;43.992;2023-04-08T00:33:52;102126.50;;;1.64;44.92
69247;BME280;56358;56.328;43.992;2023-04-08T00:35:52;102124.81;;;1.57;45.03
69247;BME280;56358;56.328;43.992;2023-04-08T00:37:53;102124.97;;;1.47;45.31
69247;BME280;56358;56.328;43.992;2023-04-08T00:39:53;102124.28;;;1.30;46.36
69247;BME280;56358;56.328;43.992;2023-04-08T00:41:54;102010.69;;;0.64;45.85
69247;BME280;56358;56.328;43.992;2023-04-08T00:43:55;102123.56;;;1.19;46.19
69247;BME280;56358;56.328;43.992;2023-04-08T00:45:56;102026.53;;;0.60;46.22
69247;BME280;56358;56.328;43.992;2023-04-08T00:47:56;102112.38;;;0.96;46.67
69247;BME280;56358;56.328;43.992;2023-04-08T00:49:57;102097.53;;;0.88;46.67
69247;BME280;56358;56.328;43.992;2023-04-08T00:51:58;102104.53;;;0.90;47.13
69247;BME280;56358;56.328;43.992;2023-04-08T00:53:59;102134.41;;;0.92;47.58
69247;BME280;56358;56.328;43.992;2023-04-08T00:56:00;102120.38;;;0.90;47.61
69247;BME280;56358;56.328;43.992;2023-04-08T00:58:00;102127.50;;;0.83;47.65
69247;BME280;56358;56.328;43.992;2023-04-08T01:00:03;102118.72;;;0.80;48.09
69247;BME280;56358;56.328;43.992;2023-04-08T01:02:20;102119.66;;;0.76;47.91
69247;BME280;56358;56.328;43.992;2023-04-08T01:04:37;102087.31;;;0.52;48.08
69247;BME280;56358;56.328;43.992;2023-04-08T01:06:48;102133.78;;;0.70;47.93
69247;BME280;56358;56.328;43.992;2023-04-08T01:08:51;102111.00;;;0.60;47.74
69247;BME280;56358;56.328;43.992;2023-04-08T01:10:56;102100.59;;;0.47;48.03
69247;BME280;56358;56.328;43.992;2023-04-08T01:13:11;102131.22;;;0.62;48.01
69247;BME280;56358;56.328;43.992;2023-04-08T01:15:13;102124.22;;;0.58;48.11
69247;BME280;56358;56.328;43.992;2023-04-08T01:17:17;102081.44;;;0.28;48.27
69247;BME280;56358;56.328;43.992;2023-04-08T01:19:26;102130.44;;;0.53;48.44
69247;BME280;56358;56.328;43.992;2023-04-08T01:21:29;102124.28;;;0.52;48.19
69247;BME280;56358;56.328;43.992;2023-04-08T01:23:38;102133.09;;;0.49;48.44
69247;BME280;56358;56.328;43.992;2023-04-08T01:25:53;102144.53;;;0.50;48.38
69247;BME280;56358;56.328;43.992;2023-04-08T01:27:55;102126.09;;;0.48;48.03
69247;BME280;56358;56.328;43.992;2023-04-08T01:29:58;102110.41;;;0.31;48.14
69247;BME280;56358;56.328;43.992;2023-04-08T01:32:00;102121.72;;;0.44;48.39
69247;BME280;56358;56.328;43.992;2023-04-08T01:34:03;102127.03;;;0.40;48.95
69247;BME280;56358;56.328;43.992;2023-04-08T01:36:05;102125.28;;;0.37;48.85
69247;BME280;56358;56.328;43.992;2023-04-08T01:38:09;102131.47;;;0.36;48.76
69247;BME280;56358;56.328;43.992;2023-04-08T01:40:10;102127.97;;;0.36;48.41
69247;BME280;56358;56.328;43.992;2023-04-08T01:42:13;102134.13;;;0.35;48.27
69247;BME280;56358;56.328;43.992;2023-04-08T01:44:15;102129.72;;;0.35;48.93
69247;BME280;56358;56.328;43.992;2023-04-08T01:46:17;102118.41;;;0.21;49.79
69247;BME280;56358;56.328;43.992;2023-04-08T01:48:19;102132.41;;;0.29;49.18
69247;BME280;56358;56.328;43.992;2023-04-08T01:50:20;102140.34;;;0.27;49.08
69247;BME280;56358;56.328;43.992;2023-04-08T01:52:22;102134.19;;;0.24;49.56
69247;BME280;56358;56.328;43.992;2023-04-08T01:54:23;102130.75;;;0.20;49.97
69247;BME280;56358;56.328;43.992;2023-04-08T01:56:27;102122.06;;;0.03;50.23
69247;BME280;56358;56.328;43.992;2023-04-08T01:58:32;102086.97;;;-0.07;49.87
69247;BME280;56358;56.328;43.992;2023-04-08T02:00:38;102137.78;;;0.18;49.56
69247;BME280;56358;56.328;43.992;2023-04-08T02:02:42;102103.59;;;0.03;49.00
69247;BME280;56358;56.328;43.992;2023-04-08T02:04:43;102117.63;;;0.09;48.85
69247;BME280;56358;56.328;43.992;2023-04-08T02:06:44;102062.44;;;-0.15;48.89
69247;BME280;56358;56.328;43.992;2023-04-08T02:08:45;102134.19;;;0.28;48.91
69247;BME280;56358;56.328;43.992;2023-04-08T02:10:46;102135.03;;;0.29;48.87
69247;BME280;56358;56.328;43.992;2023-04-08T02:12:47;102113.19;;;0.14;48.86
69247;BME280;56358;56.328;43.992;2023-04-08T02:14:47;102070.31;;;-0.11;48.99
69247;BME280;56358;56.328;43.992;2023-04-08T02:19:07;102146.44;;;0.36;48.49
69247;BME280;56358;56.328;43.992;2023-04-08T02:21:13;102143.75;;;0.40;47.94
69247;BME280;56358;56.328;43.992;2023-04-08T02:23:22;102138.41;;;0.46;47.03
69247;BME280;56358;56.328;43.992;2023-04-08T02:25:24;102146.22;;;0.57;47.14
69247;BME280;56358;56.328;43.992;2023-04-08T02:27:26;102147.03;;;0.67;46.49
69247;BME280;56358;56.328;43.992;2023-04-08T02:29:30;102152.22;;;0.75;46.23
69247;BME280;56358;56.328;43.992;2023-04-08T02:31:32;102062.94;;;0.30;45.59
69247;BME280;56358;56.328;43.992;2023-04-08T02:33:33;102151.19;;;0.91;45.57
69247;BME280;56358;56.328;43.992;2023-04-08T02:35:37;102172.19;;;0.99;45.61
69247;BME280;56358;56.328;43.992;2023-04-08T02:37:39;102100.38;;;0.68;45.70
69247;BME280;56358;56.328;43.992;2023-04-08T02:39:40;102151.91;;;1.04;45.36
69247;BME280;56358;56.328;43.992;2023-04-08T02:41:40;102151.88;;;1.06;45.54
69247;BME280;56358;56.328;43.992;2023-04-08T02:43:42;102141.31;;;1.06;45.30
69247;BME280;56358;56.328;43.992;2023-04-08T02:45:43;102157.97;;;1.14;45.06
69247;BME280;56358;56.328;43.992;2023-04-08T02:47:44;102159.63;;;1.23;44.81
69247;BME280;56358;56.328;43.992;2023-04-08T02:49:44;102153.41;;;1.27;44.93
69247;BME280;56358;56.328;43.992;2023-04-08T02:51:45;102145.44;;;1.31;44.69
69247;BME280;56358;56.328;43.992;2023-04-08T02:53:46;102033.50;;;0.65;44.91
69247;BME280;56358;56.328;43.992;2023-04-08T02:55:46;102144.53;;;1.31;44.65
69247;BME280;56358;56.328;43.992;2023-04-08T02:57:47;102167.38;;;1.38;44.48
69247;BME280;56358;56.328;43.992;2023-04-08T02:59:48;102158.53;;;1.41;44.51
69247;BME280;56358;56.328;43.992;2023-04-08T03:01:50;102046.59;;;0.78;44.40
69247;BME280;56358;56.328;43.992;2023-04-08T03:03:50;102154.09;;;1.41;44.58
69247;BME280;56358;56.328;43.992;2023-04-08T03:05:51;102170.00;;;1.37;44.56
69247;BME280;56358;56.328;43.992;2023-04-08T03:07:51;102095.53;;;1.07;44.41
69247;BME280;56358;56.328;43.992;2023-04-08T03:09:53;102153.19;;;1.44;44.30
69247;BME280;56358;56.328;43.992;2023-04-08T03:11:54;102162.88;;;1.45;44.39
69247;BME280;56358;56.328;43.992;2023-04-08T03:13:55;102150.50;;;1.47;44.55
69247;BME280;56358;56.328;43.992;2023-04-08T03:15:56;102059.63;;;0.92;44.05
69247;BME280;56358;56.328;43.992;2023-04-08T03:17:57;102147.88;;;1.45;44.38
69247;BME280;56358;56.328;43.992;2023-04-08T03:19:57;102147.81;;;1.50;44.33
69247;BME280;56358;56.328;43.992;2023-04-08T03:21:58;102075.28;;;1.06;44.24
69247;BME280;56358;56.328;43.992;2023-04-08T03:23:59;102120.59;;;1.42;44.20
69247;BME280;56358;56.328;43.992;2023-04-08T03:26:00;102147.63;;;1.64;44.22
69247;BME280;56358;56.328;43.992;2023-04-08T03:28:00;102128.38;;;1.56;43.77
69247;BME280;56358;56.328;43.992;2023-04-08T03:30:01;102133.59;;;1.60;43.85
69247;BME280;56358;56.328;43.992;2023-04-08T03:32:01;102161.53;;;1.80;43.76
69247;BME280;56358;56.328;43.992;2023-04-08T03:34:02;102132.63;;;1.66;43.41
69247;BME280;56358;56.328;43.992;2023-04-08T03:36:03;102157.03;;;1.87;43.06
69247;BME280;56358;56.328;43.992;2023-04-08T03:38:04;102151.72;;;1.87;42.92
69247;BME280;56358;56.328;43.992;2023-04-08T03:40:05;102156.84;;;1.97;43.15
69247;BME280;56358;56.328;43.992;2023-04-08T03:42:06;102162.09;;;2.00;42.85
69247;BME280;56358;56.328;43.992;2023-04-08T03:44:07;102153.22;;;2.05;42.65
69247;BME280;56358;56.328;43.992;2023-04-08T03:46:09;102158.41;;;2.11;43.03
69247;BME280;56358;56.328;43.992;2023-04-08T03:48:10;102167.97;;;2.20;43.05
69247;BME280;56358;56.328;43.992;2023-04-08T03:50:10;102168.75;;;2.25;42.99
69247;BME280;56358;56.328;43.992;2023-04-08T03:52:11;102165.22;;;2.26;43.02
69247;BME280;56358;56.328;43.992;2023-04-08T03:54:12;102169.53;;;2.31;42.89
69247;BME280;56358;56.328;43.992;2023-04-08T03:56:12;102173.06;;;2.33;42.63
69247;BME280;56358;56.328;43.992;2023-04-08T03:58:13;102179.16;;;2.39;42.85
69247;BME280;56358;56.328;43.992;2023-04-08T04:00:14;102082.91;;;1.90;42.67
69247;BME280;56358;56.328;43.992;2023-04-08T04:02:14;102177.25;;;2.47;42.43
69247;BME280;56358;56.328;43.992;2023-04-08T04:04:15;102179.78;;;2.53;42.82
69247;BME280;56358;56.328;43.992;2023-04-08T04:06:16;102170.03;;;2.55;42.62
69247;BME280;56358;56.328;43.992;2023-04-08T04:08:17;102175.25;;;2.60;42.40
69247;BME280;56358;56.328;43.992;2023-04-08T04:10:17;102175.22;;;2.63;42.34
69247;BME280;56358;56.328;43.992;2023-04-08T04:12:18;102173.34;;;2.66;41.93
69247;BME280;56358;56.328;43.992;2023-04-08T04:14:19;102175.09;;;2.69;41.77
69247;BME280;56358;56.328;43.992;2023-04-08T04:16:19;102159.19;;;2.71;41.40
69247;BME280;56358;56.328;43.992;2023-04-08T04:18:20;102187.16;;;2.85;41.43
69247;BME280;56358;56.328;43.992;2023-04-08T04:20:20;102172.00;;;2.94;41.68
69247;BME280;56358;56.328;43.992;2023-04-08T04:22:21;102174.50;;;3.00;41.73
69247;BME280;56358;56.328;43.992;2023-04-08T04:24:22;102074.00;;;2.47;41.46
69247;BME280;56358;56.328;43.992;2023-04-08T04:26:22;102180.56;;;3.08;41.79
69247;BME280;56358;56.328;43.992;2023-04-08T04:28:23;102171.69;;;3.11;41.85
69247;BME280;56358;56.328;43.992;2023-04-08T04:30:24;102147.25;;;2.93;41.81
69247;BME280;56358;56.328;43.992;2023-04-08T04:32:25;102180.34;;;3.19;41.97
69247;BME280;56358;56.328;43.992;2023-04-08T04:34:25;102181.31;;;3.15;41.73
69247;BME280;56358;56.328;43.992;2023-04-08T04:36:26;102178.59;;;3.18;41.86
69247;BME280;56358;56.328;43.992;2023-04-08T04:38:27;102177.53;;;3.27;41.80
69247;BME280;56358;56.328;43.992;2023-04-08T04:40:27;102174.00;;;3.26;41.60
69247;BME280;56358;56.328;43.992;2023-04-08T04:42:28;102181.75;;;3.37;41.43
69247;BME280;56358;56.328;43.992;2023-04-08T04:44:28;102104.00;;;2.93;41.42
69247;BME280;56358;56.328;43.992;2023-04-08T04:46:29;102184.88;;;3.56;41.22
69247;BME280;56358;56.328;43.992;2023-04-08T04:48:30;102184.72;;;3.64;40.93
69247;BME280;56358;56.328;43.992;2023-04-08T04:50:30;102169.66;;;3.66;40.75
69247;BME280;56358;56.328;43.992;2023-04-08T04:52:31;102184.41;;;3.79;40.40
69247;BME280;56358;56.328;43.992;2023-04-08T04:54:32;102162.47;;;3.71;40.38
69247;BME280;56358;56.328;43.992;2023-04-08T04:56:32;102188.56;;;3.90;40.10
69247;BME280;56358;56.328;43.992;2023-04-08T04:58:33;102150.16;;;3.67;39.88
69247;BME280;56358;56.328;43.992;2023-04-08T05:00:34;102193.63;;;4.02;39.84
69247;BME280;56358;56.328;43.992;2023-04-08T05:02:34;102122.75;;;3.68;39.82
69247;BME280;56358;56.328;43.992;2023-04-08T05:04:35;102191.72;;;4.07;39.84
69247;BME280;56358;56.328;43.992;2023-04-08T05:06:36;102190.63;;;4.16;39.61
69247;BME280;56358;56.328;43.992;2023-04-08T05:08:36;102193.06;;;4.25;39.56
69247;BME280;56358;56.328;43.992;2023-04-08T05:10:39;102172.97;;;4.15;39.32
69247;BME280;56358;56.328;43.992;2023-04-08T05:12:40;102199.91;;;4.35;39.15
69247;BME280;56358;56.328;43.992;2023-04-08T05:14:41;102198.16;;;4.34;39.01
69247;BME280;56358;56.328;43.992;2023-04-08T05:16:42;102205.16;;;4.39;39.14
69247;BME280;56358;56.328;43.992;2023-04-08T05:18:42;102195.41;;;4.38;38.81
69247;BME280;56358;56.328;43.992;2023-04-08T05:20:43;102208.38;;;4.50;39.08
69247;BME280;56358;56.328;43.992;2023-04-08T05:22:43;102206.47;;;4.57;38.69
69247;BME280;56358;56.328;43.992;2023-04-08T05:24:44;102208.97;;;4.63;38.66
69247;BME280;56358;56.328;43.992;2023-04-08T05:26:45;102195.44;;;4.72;38.33
69247;BME280;56358;56.328;43.992;2023-04-08T05:28:50;102197.13;;;4.76;38.13
69247;BME280;56358;56.328;43.992;2023-04-08T05:30:51;102206.41;;;4.93;37.74
69247;BME280;56358;56.328;43.992;2023-04-08T05:32:52;102194.97;;;4.91;38.02
69247;BME280;56358;56.328;43.992;2023-04-08T05:34:53;102204.97;;;5.14;38.12
69247;BME280;56358;56.328;43.992;2023-04-08T05:36:53;102197.03;;;5.12;37.54
69247;BME280;56358;56.328;43.992;2023-04-08T05:38:54;102217.16;;;5.23;37.17
69247;BME280;56358;56.328;43.992;2023-04-08T05:40:55;102188.75;;;5.23;36.96
69247;BME280;56358;56.328;43.992;2023-04-08T05:42:55;102209.47;;;5.43;36.88
69247;BME280;56358;56.328;43.992;2023-04-08T05:44:56;102202.41;;;5.42;36.90
69247;BME280;56358;56.328;43.992;2023-04-08T05:46:56;102211.00;;;5.52;36.60
69247;BME280;56358;56.328;43.992;2023-04-08T05:48:57;102138.56;;;5.12;36.72
69247;BME280;56358;56.328;43.992;2023-04-08T05:50:58;102213.25;;;5.66;36.86
69247;BME280;56358;56.328;43.992;2023-04-08T05:52:58;102217.63;;;5.68;36.62
69247;BME280;56358;56.328;43.992;2023-04-08T05:54:59;102145.78;;;5.39;36.91
69247;BME280;56358;56.328;43.992;2023-04-08T05:56:59;102216.34;;;5.82;36.47
69247;BME280;56358;56.328;43.992;2023-04-08T05:59:00;102220.53;;;5.89;36.56
69247;BME280;56358;56.328;43.992;2023-04-08T06:01:01;102217.97;;;5.86;36.66
69247;BME280;56358;56.328;43.992;2023-04-08T06:03:01;102209.94;;;5.87;37.32
69247;BME280;56358;56.328;43.992;2023-04-08T06:05:02;102219.50;;;5.95;37.09
69247;BME280;56358;56.328;43.992;2023-04-08T06:07:03;102135.56;;;5.53;36.61
69247;BME280;56358;56.328;43.992;2023-04-08T06:09:05;102212.94;;;6.07;36.45
69247;BME280;56358;56.328;43.992;2023-04-08T06:11:06;102189.22;;;5.97;36.27
69247;BME280;56358;56.328;43.992;2023-04-08T06:13:06;102202.06;;;6.14;36.19
69247;BME280;56358;56.328;43.992;2023-04-08T06:15:07;102151.38;;;5.87;36.46
69247;BME280;56358;56.328;43.992;2023-04-08T06:17:08;102152.13;;;5.93;36.52
69247;BME280;56358;56.328;43.992;2023-04-08T06:19:09;102223.56;;;6.36;36.50
69247;BME280;56358;56.328;43.992;2023-04-08T06:21:10;102208.63;;;6.31;36.74
69247;BME280;56358;56.328;43.992;2023-04-08T06:23:11;102082.31;;;5.56;36.37
69247;BME280;56358;56.328;43.992;2023-04-08T06:25:12;102224.19;;;6.45;36.31
69247;BME280;56358;56.328;43.992;2023-04-08T06:27:14;102231.09;;;6.50;36.28
69247;BME280;56358;56.328;43.992;2023-04-08T06:29:15;102161.75;;;6.25;36.22
69247;BME280;56358;56.328;43.992;2023-04-08T06:31:16;102209.41;;;6.61;35.95
69247;BME280;56358;56.328;43.992;2023-04-08T06:33:16;102204.31;;;6.55;35.91
69247;BME280;56358;56.328;43.992;2023-04-08T06:35:17;102228.63;;;6.71;35.88
69247;BME280;56358;56.328;43.992;2023-04-08T06:37:18;102216.13;;;6.73;35.27
69247;BME280;56358;56.328;43.992;2023-04-08T06:39:18;102188.94;;;6.63;35.50
69247;BME280;56358;56.328;43.992;2023-04-08T06:41:20;102215.31;;;6.96;35.48
69247;BME280;56358;56.328;43.992;2023-04-08T06:43:21;102218.50;;;7.08;35.01
69247;BME280;56358;56.328;43.992;2023-04-08T06:45:21;102217.22;;;7.18;35.15
69247;BME280;56358;56.328;43.992;2023-04-08T06:47:22;102219.69;;;7.24;34.68
69247;BME280;56358;56.328;43.992;2023-04-08T06:49:23;102171.22;;;7.11;34.75
69247;BME280;56358;56.328;43.992;2023-04-08T06:51:24;102210.16;;;7.42;34.21
69247;BME280;56358;56.328;43.992;2023-04-08T06:53:26;102138.44;;;7.09;34.36
69247;BME280;56358;56.328;43.992;2023-04-08T06:55:28;102215.72;;;7.60;33.57
69247;BME280;56358;56.328;43.992;2023-04-08T06:57:29;102213.84;;;7.62;33.14
69247;BME280;56358;56.328;43.992;2023-04-08T06:59:30;102210.72;;;7.74;32.51
69247;BME280;56358;56.328;43.992;2023-04-08T07:01:30;102213.22;;;7.79;31.35
69247;BME280;56358;56.328;43.992;2023-04-08T07:03:31;102127.81;;;7.31;30.78
69247;BME280;56358;56.328;43.992;2023-04-08T07:05:34;102191.94;;;7.77;30.41
69247;BME280;56358;56.328;43.992;2023-04-08T07:07:36;102218.97;;;7.92;29.57
69247;BME280;56358;56.328;43.992;2023-04-08T07:09:36;102217.94;;;7.94;29.87
69247;BME280;56358;56.328;43.992;2023-04-08T07:11:37;102133.28;;;7.52;28.94
69247;BME280;56358;56.328;43.992;2023-04-08T07:13:38;102212.38;;;8.00;28.72
69247;BME280;56358;56.328;43.992;2023-04-08T07:15:39;102201.69;;;8.00;28.76
69247;BME280;56358;56.328;43.992;2023-04-08T07:17:40;102200.72;;;8.03;28.79
69247;BME280;56358;56.328;43.992;2023-04-08T07:19:41;102187.69;;;8.17;29.11
69247;BME280;56358;56.328;43.992;2023-04-08T07:21:43;102138.59;;;7.98;28.70
69247;BME280;56358;56.328;43.992;2023-04-08T07:23:43;102190.75;;;8.29;28.07
69247;BME280;56358;56.328;43.992;2023-04-08T07:25:45;102191.31;;;8.37;27.62
69247;BME280;56358;56.328;43.992;2023-04-08T07:27:46;102161.44;;;8.27;27.02
69247;BME280;56358;56.328;43.992;2023-04-08T07:29:51;102180.16;;;8.27;26.60
69247;BME280;56358;56.328;43.992;2023-04-08T07:31:52;102200.91;;;8.43;26.48
69247;BME280;56358;56.328;43.992;2023-04-08T07:33:53;102182.78;;;8.51;26.25
69247;BME280;56358;56.328;43.992;2023-04-08T07:35:53;102183.31;;;8.59;26.21
69247;BME280;56358;56.328;43.992;2023-04-08T07:37:54;102191.88;;;8.67;25.42
69247;BME280;56358;56.328;43.992;2023-04-08T07:39:56;102199.66;;;8.74;25.64
69247;BME280;56358;56.328;43.992;2023-04-08T07:41:57;102190.47;;;8.79;25.61
69247;BME280;56358;56.328;43.992;2023-04-08T07:43:58;102189.16;;;8.89;25.07
69247;BME280;56358;56.328;43.992;2023-04-08T07:46:02;102047.94;;;8.15;25.04
69247;BME280;56358;56.328;43.992;2023-04-08T07:48:03;102189.34;;;9.05;24.79
69247;BME280;56358;56.328;43.992;2023-04-08T07:50:04;102178.50;;;9.09;24.04
69247;BME280;56358;56.328;43.992;2023-04-08T07:52:05;102183.13;;;9.05;23.99
69247;BME280;56358;56.328;43.992;2023-04-08T07:54:06;102177.09;;;9.00;24.01
69247;BME280;56358;56.328;43.992;2023-04-08T07:56:14;102187.69;;;9.03;23.82
69247;BME280;56358;56.328;43.992;2023-04-08T07:58:15;102179.91;;;8.97;24.03
69247;BME280;56358;56.328;43.992;2023-04-08T08:00:16;102163.00;;;8.96;24.16
69247;BME280;56358;56.328;43.992;2023-04-08T08:02:20;102184.84;;;9.06;23.73
69247;BME280;56358;56.328;43.992;2023-04-08T08:04:21;102100.91;;;8.69;23.49
69247;BME280;56358;56.328;43.992;2023-04-08T08:06:25;102186.72;;;9.25;23.57
69247;BME280;56358;56.328;43.992;2023-04-08T08:08:26;102122.16;;;8.93;23.17
69247;BME280;56358;56.328;43.992;2023-04-08T08:10:27;102048.22;;;8.50;23.71
69247;BME280;56358;56.328;43.992;2023-04-08T08:12:28;102171.25;;;9.31;23.69
69247;BME280;56358;56.328;43.992;2023-04-08T08:14:28;102158.88;;;9.29;23.54
69247;BME280;56358;56.328;43.992;2023-04-08T08:16:30;102161.91;;;9.40;23.69
69247;BME280;56358;56.328;43.992;2023-04-08T08:18:31;102161.78;;;9.43;23.42
69247;BME280;56358;56.328;43.992;2023-04-08T08:20:34;102162.31;;;9.51;23.42
69247;BME280;56358;56.328;43.992;2023-04-08T08:22:35;102169.09;;;9.59;23.37
69247;BME280;56358;56.328;43.992;2023-04-08T08:24:38;102173.28;;;9.64;23.00
69247;BME280;56358;56.328;43.992;2023-04-08T08:26:39;102153.59;;;9.65;23.14
69247;BME280;56358;56.328;43.992;2023-04-08T08:28:40;102159.28;;;9.59;22.87
69247;BME280;56358;56.328;43.992;2023-04-08T08:30:40;102145.81;;;9.61;22.57
69247;BME280;56358;56.328;43.992;2023-04-08T08:32:41;102123.22;;;9.47;22.51
69247;BME280;56358;56.328;43.992;2023-04-08T08:34:42;102154.34;;;9.69;22.43
69247;BME280;56358;56.328;43.992;2023-04-08T08:36:42;102143.28;;;9.77;22.54
69247;BME280;56358;56.328;43.992;2023-04-08T08:38:43;102161.06;;;9.97;22.53
69247;BME280;56358;56.328;43.992;2023-04-08T08:40:44;102154.38;;;10.05;22.25
69247;BME280;56358;56.328;43.992;2023-04-08T08:42:51;102149.28;;;10.18;22.06
69247;BME280;56358;56.328;43.992;2023-04-08T08:44:53;102155.03;;;10.28;22.02
69247;BME280;56358;56.328;43.992;2023-04-08T08:46:53;102107.47;;;9.97;21.67
69247;BME280;56358;56.328;43.992;2023-04-08T08:48:54;102136.75;;;10.19;21.83
69247;BME280;56358;56.328;43.992;2023-04-08T08:50:56;102107.03;;;10.06;21.52
69247;BME280;56358;56.328;43.992;2023-04-08T08:52:57;102060.19;;;9.96;21.86
69247;BME280;56358;56.328;43.992;2023-04-08T08:54:58;102053.00;;;9.96;21.99
69247;BME280;56358;56.328;43.992;2023-04-08T08:56:58;102130.25;;;10.42;21.07
69247;BME280;56358;56.328;43.992;2023-04-08T08:58:59;102081.63;;;10.31;21.32
69247;BME280;56358;56.328;43.992;2023-04-08T09:01:00;102127.22;;;10.83;20.92
69247;BME280;56358;56.328;43.992;2023-04-08T09:03:24;102133.59;;;10.98;20.75
69247;BME280;56358;56.328;43.992;2023-04-08T09:05:28;102134.50;;;11.48;20.33
69247;BME280;56358;56.328;43.992;2023-04-08T09:07:30;102142.91;;;11.90;20.05
69247;BME280;56358;56.328;43.992;2023-04-08T09:09:50;102059.84;;;12.01;18.68
69247;BME280;56358;56.328;43.992;2023-04-08T09:12:02;102130.31;;;12.83;18.61
69247;BME280;56358;56.328;43.992;2023-04-08T09:14:03;102136.75;;;13.24;18.58
69247;BME280;56358;56.328;43.992;2023-04-08T09:16:07;102141.88;;;13.43;18.05
69247;BME280;56358;56.328;43.992;2023-04-08T09:18:21;102106.78;;;13.86;17.49
69247;BME280;56358;56.328;43.992;2023-04-08T09:20:22;102131.53;;;14.46;17.53
69247;BME280;56358;56.328;43.992;2023-04-08T09:22:23;102125.59;;;14.41;17.12
69247;BME280;56358;56.328;43.992;2023-04-08T09:24:30;102110.63;;;14.50;17.11
69247;BME280;56358;56.328;43.992;2023-04-08T09:26:31;102122.47;;;14.87;17.13
69247;BME280;56358;56.328;43.992;2023-04-08T09:28:31;102111.63;;;15.26;16.57
69247;BME280;56358;56.328;43.992;2023-04-08T09:30:33;102123.75;;;15.83;16.37
69247;BME280;56358;56.328;43.992;2023-04-08T09:32:50;102118.38;;;15.95;15.36
69247;BME280;56358;56.328;43.992;2023-04-08T09:34:51;102066.44;;;15.65;15.45
69247;BME280;56358;56.328;43.992;2023-04-08T09:36:52;102069.28;;;15.51;14.92
69247;BME280;56358;56.328;43.992;2023-04-08T09:38:54;102100.13;;;16.09;15.25
69247;BME280;56358;56.328;43.992;2023-04-08T09:40:55;102044.00;;;15.89;15.06
69247;BME280;56358;56.328;43.992;2023-04-08T09:42:57;102118.38;;;16.54;15.12
69247;BME280;56358;56.328;43.992;2023-04-08T09:45:01;102117.09;;;16.83;15.32
69247;BME280;56358;56.328;43.992;2023-04-08T09:47:09;102040.56;;;16.92;14.73
69247;BME280;56358;56.328;43.992;2023-04-08T09:51:18;102120.44;;;17.54;13.91
69247;BME280;56358;56.328;43.992;2023-04-08T09:53:27;102106.66;;;17.57;13.67
69247;BME280;56358;56.328;43.992;2023-04-08T09:55:30;102090.31;;;17.80;14.29
69247;BME280;56358;56.328;43.992;2023-04-08T10:00:04;102101.66;;;18.71;13.69
69247;BME280;56358;56.328;43.992;2023-04-08T10:02:09;102086.78;;;18.97;13.62
69247;BME280;56358;56.328;43.992;2023-04-08T10:04:14;102092.25;;;19.37;13.20
69247;BME280;56358;56.328;43.992;2023-04-08T10:06:16;102098.81;;;18.94;13.17
69247;BME280;56358;56.328;43.992;2023-04-08T10:08:17;102102.03;;;18.46;13.02
69247;BME280;56358;56.328;43.992;2023-04-08T10:10:18;102102.78;;;18.48;13.29
69247;BME280;56358;56.328;43.992;2023-04-08T10:12:19;102046.28;;;18.41;13.07
69247;BME280;56358;56.328;43.992;2023-04-08T10:14:20;102091.31;;;18.65;12.82
69247;BME280;56358;56.328;43.992;2023-04-08T10:16:23;102037.56;;;18.38;12.99
69247;BME280;56358;56.328;43.992;2023-04-08T10:18:29;102089.56;;;18.85;13.10
69247;BME280;56358;56.328;43.992;2023-04-08T10:22:47;102113.94;;;18.33;13.08
69247;BME280;56358;56.328;43.992;2023-04-08T10:25:39;102096.78;;;18.75;13.18
69247;BME280;56358;56.328;43.992;2023-04-08T10:27:40;102025.47;;;19.04;12.87
69247;BME280;56358;56.328;43.992;2023-04-08T10:29:41;101974.50;;;18.13;12.88
69247;BME280;56358;56.328;43.992;2023-04-08T10:31:42;102072.75;;;18.70;12.91
69247;BME280;56358;56.328;43.992;2023-04-08T10:33:43;102078.25;;;19.01;13.01
69247;BME280;56358;56.328;43.992;2023-04-08T10:35:47;101979.78;;;18.36;12.43
69247;BME280;56358;56.328;43.992;2023-04-08T10:37:48;102076.34;;;19.33;12.34
69247;BME280;56358;56.328;43.992;2023-04-08T10:39:49;102069.59;;;19.77;12.09
69247;BME280;56358;56.328;43.992;2023-04-08T10:41:52;102067.31;;;19.92;12.08
69247;BME280;56358;56.328;43.992;2023-04-08T10:43:52;102024.22;;;19.88;12.05
69247;BME280;56358;56.328;43.992;2023-04-08T10:45:53;102074.72;;;20.59;11.35